createdAt,value
2019-01-23T00:02:05.423Z,99504.58
2019-01-23T00:04:31.409Z,99499.75
2019-01-23T00:06:57.411Z,99499.05
2019-01-23T00:09:23.407Z,99496.31
2019-01-23T00:11:49.409Z,99491.95
2019-01-23T00:14:15.383Z,99487.58
2019-01-23T00:16:41.388Z,99489.07
2019-01-23T00:19:07.444Z,99486.56
2019-01-23T00:21:34.499Z,99486.05
2019-01-23T00:24:00.484Z,99482.42
2019-01-23T00:26:26.492Z,99479.58
2019-01-23T00:28:52.557Z,99488.94
2019-01-23T00:31:18.577Z,99480.84
2019-01-23T00:33:44.584Z,99474.67
2019-01-23T00:36:10.595Z,99465.34
2019-01-23T00:38:36.597Z,99464.22
2019-01-23T00:41:02.640Z,99468.99
2019-01-23T00:43:28.624Z,99467.30
2019-01-23T00:45:54.646Z,99461.75
2019-01-23T00:48:20.647Z,99452.41
2019-01-23T00:50:46.807Z,99455.80
2019-01-23T00:53:12.815Z,99445.64
2019-01-23T00:55:38.882Z,99444.55
2019-01-23T00:58:04.879Z,99433.72
2019-01-23T01:00:30.871Z,99434.77
2019-01-23T01:02:56.871Z,99429.66
2019-01-23T01:05:22.878Z,99429.47
2019-01-23T01:07:48.888Z,99429.08
2019-01-23T01:10:14.868Z,99429.86
2019-01-23T01:12:40.880Z,99423.84
2019-01-23T01:15:13.090Z,99423.73
2019-01-23T01:17:34.588Z,99421.91
2019-01-23T01:20:00.588Z,99419.23
2019-01-23T01:22:26.569Z,99425.43
2019-01-23T01:24:52.555Z,99417.84
2019-01-23T01:27:18.545Z,99419.61
2019-01-23T01:29:44.536Z,99412.60
2019-01-23T01:32:10.531Z,99418.59
2019-01-23T01:34:36.546Z,99424.08
2019-01-23T01:37:02.546Z,99422.08
2019-01-23T01:39:28.528Z,99416.93
2019-01-23T01:41:54.527Z,99411.66
2019-01-23T01:44:20.521Z,99410.50
2019-01-23T01:46:46.610Z,99415.81
2019-01-23T01:49:12.602Z,99411.41
2019-01-23T01:51:38.649Z,99409.76
2019-01-23T01:54:04.629Z,99408.88
2019-01-23T01:56:30.612Z,99408.00
2019-01-23T01:59:02.605Z,99406.84
2019-01-23T02:01:24.397Z,99399.70
2019-01-23T02:03:50.398Z,99399.44
2019-01-23T02:06:16.370Z,99397.13
2019-01-23T02:08:42.404Z,99384.78
2019-01-23T02:11:08.419Z,99391.95
2019-01-23T02:13:34.390Z,99392.20
2019-01-23T02:16:00.385Z,99395.24
2019-01-23T02:18:26.395Z,99394.53
2019-01-23T02:20:52.407Z,99383.22
2019-01-23T02:23:18.388Z,99384.75
2019-01-23T02:25:44.376Z,99378.69
2019-01-23T02:28:10.349Z,99381.33
2019-01-23T02:30:36.340Z,99374.49
2019-01-23T02:33:02.336Z,99371.66
2019-01-23T02:35:28.329Z,99369.97
2019-01-23T02:37:54.328Z,99365.58
2019-01-23T02:40:20.440Z,99367.39
2019-01-23T02:42:46.455Z,99363.67
2019-01-23T02:45:12.464Z,99362.99
2019-01-23T02:47:38.446Z,99356.20
2019-01-23T02:50:04.437Z,99360.24
2019-01-23T02:52:30.426Z,99351.28
2019-01-23T02:54:56.465Z,99349.80
2019-01-23T02:57:22.449Z,99344.34
2019-01-23T02:59:48.445Z,99339.65
2019-01-23T03:02:14.421Z,99332.52
2019-01-23T03:04:40.417Z,99324.20
2019-01-23T03:07:06.442Z,99324.30
2019-01-23T03:09:32.442Z,99324.38
2019-01-23T03:11:58.501Z,99323.23
2019-01-23T03:14:24.480Z,99313.53
2019-01-23T03:16:50.508Z,99318.59
2019-01-23T03:19:16.503Z,99321.34
2019-01-23T03:21:42.572Z,99314.98
2019-01-23T03:24:08.565Z,99313.66
2019-01-23T03:26:34.553Z,99313.16
2019-01-23T03:29:00.580Z,99304.33
2019-01-23T03:31:26.705Z,99305.45
2019-01-23T03:33:52.684Z,99307.28
2019-01-23T03:36:18.673Z,99301.02
2019-01-23T03:38:44.679Z,99295.94
2019-01-23T03:41:10.707Z,99298.70
2019-01-23T03:43:36.691Z,99290.58
2019-01-23T03:46:02.708Z,99291.34
2019-01-23T03:48:28.697Z,99287.77
2019-01-23T03:50:54.668Z,99280.36
2019-01-23T03:53:20.684Z,99282.37
2019-01-23T03:55:46.664Z,99280.55
2019-01-23T03:58:12.659Z,99277.02
2019-01-23T04:00:38.666Z,99279.98
2019-01-23T04:03:04.764Z,99283.42
2019-01-23T04:05:31.138Z,99276.13
2019-01-23T04:07:57.312Z,99274.69
2019-01-23T04:10:23.319Z,99272.43
2019-01-23T04:12:49.313Z,99273.44
2019-01-23T04:15:15.294Z,99269.84
2019-01-23T04:17:41.311Z,99271.28
2019-01-23T04:20:07.300Z,99272.88
2019-01-23T04:22:33.305Z,99270.09
2019-01-23T04:24:59.431Z,99269.10
2019-01-23T04:27:25.424Z,99267.31
2019-01-23T04:29:51.419Z,99261.34
2019-01-23T04:32:17.429Z,99258.13
2019-01-23T04:34:43.427Z,99262.22
2019-01-23T04:37:09.439Z,99258.45
2019-01-23T04:39:35.427Z,99255.13
2019-01-23T04:42:01.431Z,99252.72
2019-01-23T04:44:27.413Z,99251.34
2019-01-23T04:46:53.411Z,99250.78
2019-01-23T04:49:19.401Z,99253.16
2019-01-23T04:51:45.412Z,99249.28
2019-01-23T04:54:11.453Z,99245.25
2019-01-23T04:56:37.443Z,99250.60
2019-01-23T04:59:03.434Z,99246.13
2019-01-23T05:01:29.408Z,99244.42
2019-01-23T05:03:55.402Z,99252.32
2019-01-23T05:06:21.452Z,99249.70
2019-01-23T05:08:47.452Z,99240.91
2019-01-23T05:11:13.442Z,99243.79
2019-01-23T05:13:39.509Z,99241.66
2019-01-23T05:16:05.532Z,99237.13
2019-01-23T05:18:31.569Z,99234.93
2019-01-23T05:20:57.566Z,99232.61
2019-01-23T05:23:23.566Z,99238.06
2019-01-23T05:25:49.559Z,99241.27
2019-01-23T05:28:15.607Z,99233.54
2019-01-23T05:30:41.591Z,99231.02
2019-01-23T05:33:07.564Z,99240.66
2019-01-23T05:35:33.555Z,99242.73
2019-01-23T05:37:59.556Z,99238.06
2019-01-23T05:40:25.541Z,99234.81
2019-01-23T05:42:51.652Z,99238.38
2019-01-23T05:45:17.658Z,99235.12
2019-01-23T05:47:43.706Z,99230.34
2019-01-23T05:50:09.697Z,99232.94
2019-01-23T05:52:35.671Z,99230.33
2019-01-23T05:55:01.650Z,99234.31
2019-01-23T05:57:27.699Z,99227.78
2019-01-23T05:59:53.722Z,99228.22
2019-01-23T06:02:19.765Z,99228.20
2019-01-23T06:04:45.758Z,99225.10
2019-01-23T06:07:11.744Z,99232.63
2019-01-23T06:09:39.820Z,99231.33
2019-01-23T06:12:05.804Z,99229.15
2019-01-23T06:14:32.455Z,99230.72
2019-01-23T06:16:58.457Z,99227.95
2019-01-23T06:19:24.453Z,99221.61
2019-01-23T06:21:50.448Z,99223.81
2019-01-23T06:24:16.443Z,99222.30
2019-01-23T06:26:42.530Z,99229.59
2019-01-23T06:29:08.565Z,99232.04
2019-01-23T06:31:34.602Z,99229.70
2019-01-23T06:34:00.587Z,99223.84
2019-01-23T06:36:26.581Z,99227.87
2019-01-23T06:38:52.551Z,99223.87
2019-01-23T06:41:18.548Z,99223.61
2019-01-23T06:43:44.532Z,99220.84
2019-01-23T06:46:10.536Z,99224.10
2019-01-23T06:48:36.533Z,99225.61
2019-01-23T06:51:02.540Z,99224.50
2019-01-23T06:53:28.524Z,99222.60
2019-01-23T06:55:55.596Z,99230.11
2019-01-23T06:58:21.638Z,99227.78
2019-01-23T07:00:47.689Z,99227.64
2019-01-23T07:03:13.678Z,99235.83
2019-01-23T07:05:39.676Z,99230.97
2019-01-23T07:08:05.697Z,99234.98
2019-01-23T07:10:31.679Z,99233.19
2019-01-23T07:12:57.680Z,99238.50
2019-01-23T07:15:23.673Z,99243.19
2019-01-23T07:17:49.697Z,99245.42
2019-01-23T07:20:15.707Z,99241.71
2019-01-23T07:22:42.712Z,99241.71
2019-01-23T07:25:08.736Z,99248.58
2019-01-23T07:27:34.822Z,99247.63
2019-01-23T07:30:00.859Z,99246.19
2019-01-23T07:32:26.913Z,99250.14
2019-01-23T07:34:52.897Z,99249.27
2019-01-23T07:37:18.890Z,99247.20
2019-01-23T07:39:44.878Z,99247.06
2019-01-23T07:42:10.946Z,99251.47
2019-01-23T07:44:36.932Z,99259.78
2019-01-23T07:47:02.944Z,99260.59
2019-01-23T07:49:29.807Z,99259.59
2019-01-23T07:51:55.929Z,99262.53
2019-01-23T07:54:22.037Z,99262.04
2019-01-23T07:56:49.013Z,99261.86
2019-01-23T07:59:15.016Z,99268.96
2019-01-23T08:01:41.025Z,99267.25
2019-01-23T08:04:07.073Z,99268.15
2019-01-23T08:06:33.107Z,99272.29
2019-01-23T08:08:59.128Z,99273.48
2019-01-23T08:11:25.143Z,99269.52
2019-01-23T08:13:51.219Z,99262.92
2019-01-23T08:16:19.363Z,99271.59
2019-01-23T08:18:47.473Z,99269.16
2019-01-23T08:21:13.500Z,99267.95
2019-01-23T08:23:39.531Z,99268.52
2019-01-23T08:26:05.524Z,99269.09
2019-01-23T08:28:31.542Z,99268.02
2019-01-23T08:30:57.533Z,99267.86
2019-01-23T08:33:23.599Z,99279.63
2019-01-23T08:35:49.605Z,99279.70
2019-01-23T08:38:15.601Z,99286.08
2019-01-23T08:40:41.629Z,99282.43
2019-01-23T08:43:07.606Z,99274.25
2019-01-23T08:45:33.627Z,99279.80
2019-01-23T08:47:59.601Z,99284.06
2019-01-23T08:50:25.603Z,99281.17
2019-01-23T08:52:51.603Z,99282.94
2019-01-23T08:55:17.583Z,99284.98
2019-01-23T08:57:43.595Z,99288.08
2019-01-23T09:00:09.673Z,99294.63
2019-01-23T09:02:35.706Z,99287.56
2019-01-23T09:05:01.750Z,99286.03
2019-01-23T09:07:27.749Z,99290.56
2019-01-23T09:09:53.770Z,99288.47
2019-01-23T09:12:19.763Z,99288.08
2019-01-23T09:14:45.765Z,99291.44
2019-01-23T09:17:11.746Z,99292.94
2019-01-23T09:19:37.804Z,99284.75
2019-01-23T09:22:03.912Z,99290.03
2019-01-23T09:24:29.927Z,99290.98
2019-01-23T09:26:55.922Z,99293.36
2019-01-23T09:29:21.977Z,99297.96
2019-01-23T09:31:47.968Z,99296.97
2019-01-23T09:34:13.946Z,99303.59
2019-01-23T09:36:39.996Z,99312.81
2019-01-23T09:39:06.011Z,99307.71
2019-01-23T09:41:32.078Z,99315.21
2019-01-23T09:43:58.128Z,99323.61
2019-01-23T09:46:24.144Z,99314.80
2019-01-23T09:48:51.512Z,99313.87
2019-01-23T09:51:17.681Z,99309.00
2019-01-23T09:53:43.723Z,99313.14
2019-01-23T09:56:09.726Z,99314.81
2019-01-23T09:58:35.708Z,99304.30
2019-01-23T10:01:01.776Z,99312.86
2019-01-23T10:03:27.820Z,99312.39
2019-01-23T10:05:53.798Z,99315.45
2019-01-23T10:08:20.832Z,99314.69
2019-01-23T10:10:46.810Z,99318.77
2019-01-23T10:13:12.831Z,99316.30
2019-01-23T10:15:38.816Z,99325.17
2019-01-23T10:18:04.824Z,99321.80
2019-01-23T10:20:30.827Z,99319.88
2019-01-23T10:22:56.804Z,99321.45
2019-01-23T10:25:22.811Z,99326.91
2019-01-23T10:27:48.816Z,99327.36
2019-01-23T10:30:14.878Z,99332.93
2019-01-23T10:32:40.875Z,99332.50
2019-01-23T10:35:06.897Z,99328.02
2019-01-23T10:37:32.887Z,99340.47
2019-01-23T10:39:58.928Z,99334.16
2019-01-23T10:42:24.919Z,99336.97
2019-01-23T10:44:50.949Z,99342.81
2019-01-23T10:47:16.931Z,99339.48
2019-01-23T10:49:43.001Z,99339.86
2019-01-23T10:52:09.405Z,99339.61
2019-01-23T10:54:35.490Z,99347.16
2019-01-23T10:57:01.528Z,99346.09
2019-01-23T10:59:28.593Z,99349.62
2019-01-23T11:01:54.732Z,99350.31
2019-01-23T11:04:21.071Z,99352.52
2019-01-23T11:06:47.094Z,99353.25
2019-01-23T11:09:14.179Z,99351.25
2019-01-23T11:11:41.238Z,99350.23
2019-01-23T11:14:07.283Z,99347.59
2019-01-23T11:16:33.368Z,99347.66
2019-01-23T11:18:59.495Z,99344.72
2019-01-23T11:21:26.519Z,99340.30
2019-01-23T11:23:52.575Z,99347.03
2019-01-23T11:26:19.245Z,99340.55
2019-01-23T11:28:45.354Z,99348.69
2019-01-23T11:31:11.788Z,99348.56
2019-01-23T11:33:37.781Z,99350.00
2019-01-23T11:36:04.213Z,99355.55
2019-01-23T11:38:30.588Z,99356.23
2019-01-23T11:40:56.592Z,99357.55
2019-01-23T11:43:22.623Z,99346.52
2019-01-23T11:45:48.682Z,99358.03
2019-01-23T11:48:14.860Z,99358.97
2019-01-23T11:50:40.985Z,99352.70
2019-01-23T11:53:08.126Z,99353.03
2019-01-23T11:55:34.493Z,99351.58
2019-01-23T11:58:03.749Z,99362.58
2019-01-23T12:00:29.755Z,99354.39
2019-01-23T12:02:56.854Z,99350.66
2019-01-23T12:05:22.893Z,99356.91
2019-01-23T12:07:48.917Z,99361.81
2019-01-23T12:10:14.996Z,99364.84
2019-01-23T12:12:41.022Z,99367.66
2019-01-23T12:15:07.124Z,99365.98
2019-01-23T12:17:33.212Z,99370.59
2019-01-23T12:19:59.318Z,99369.65
2019-01-23T12:22:25.451Z,99376.03
2019-01-23T12:24:51.550Z,99372.85
2019-01-23T12:27:17.599Z,99366.72
2019-01-23T12:29:43.621Z,99375.84
2019-01-23T12:32:09.600Z,99372.32
2019-01-23T12:34:35.669Z,99368.47
2019-01-23T12:37:01.766Z,99371.69
2019-01-23T12:39:28.122Z,99372.47
2019-01-23T12:41:54.277Z,99373.81
2019-01-23T12:44:20.329Z,99374.55
2019-01-23T12:46:46.359Z,99377.70
2019-01-23T12:49:12.410Z,99376.33
2019-01-23T12:51:38.500Z,99377.88
2019-01-23T12:54:04.499Z,99380.12
2019-01-23T12:56:30.674Z,99376.33
2019-01-23T12:58:56.739Z,99374.22
2019-01-23T13:01:28.706Z,99375.22
2019-01-23T13:03:54.725Z,99374.97
2019-01-23T13:06:20.821Z,99375.75
2019-01-23T13:08:46.926Z,99379.63
2019-01-23T13:11:13.937Z,99378.90
2019-01-23T13:13:40.040Z,99386.55
2019-01-23T13:16:06.529Z,99390.33
2019-01-23T13:18:32.876Z,99390.20
2019-01-23T13:20:59.050Z,99394.80
2019-01-23T13:23:25.057Z,99398.42
2019-01-23T13:25:51.118Z,99401.31
2019-01-23T13:28:17.125Z,99397.44
2019-01-23T13:30:43.113Z,99396.25
2019-01-23T13:33:09.191Z,99402.02
2019-01-23T13:35:35.325Z,99399.48
2019-01-23T13:38:01.643Z,99405.54
2019-01-23T13:40:27.654Z,99399.83
2019-01-23T13:42:53.741Z,99405.67
2019-01-23T13:45:20.083Z,99402.90
2019-01-23T13:47:46.114Z,99404.34
2019-01-23T13:50:12.101Z,99407.37
2019-01-23T13:52:38.105Z,99410.91
2019-01-23T13:55:04.090Z,99408.70
2019-01-23T13:57:30.081Z,99413.38
2019-01-23T13:59:58.135Z,99410.91
2019-01-23T14:02:24.202Z,99409.22
2019-01-23T14:04:50.270Z,99407.88
2019-01-23T14:07:16.413Z,99414.48
2019-01-23T14:09:42.482Z,99417.66
2019-01-23T14:12:13.340Z,99417.81
2019-01-23T14:14:39.405Z,99422.80
2019-01-23T14:17:05.896Z,99418.84
2019-01-23T14:19:31.991Z,99421.91
2019-01-23T14:21:58.516Z,99420.70
2019-01-23T14:24:30.604Z,99425.61
2019-01-23T14:26:57.067Z,99424.98
2019-01-23T14:29:23.939Z,99424.84
2019-01-23T14:31:49.945Z,99428.42
2019-01-23T14:34:15.978Z,99434.64
2019-01-23T14:36:42.073Z,99429.49
2019-01-23T14:39:08.129Z,99432.73
2019-01-23T14:41:34.171Z,99441.17
2019-01-23T14:44:00.164Z,99446.25
2019-01-23T14:46:26.178Z,99452.98
2019-01-23T14:48:52.187Z,99452.85
2019-01-23T14:51:19.137Z,99452.30
2019-01-23T14:53:45.116Z,99457.16
2019-01-23T14:56:11.181Z,99461.69
2019-01-23T14:58:38.055Z,99466.58
2019-01-23T15:01:04.100Z,99471.40
2019-01-23T15:03:30.250Z,99471.40
2019-01-23T15:05:56.642Z,99472.89
2019-01-23T15:08:22.692Z,99475.88
2019-01-23T15:10:48.789Z,99480.88
2019-01-23T15:13:14.829Z,99482.47
2019-01-23T15:15:40.869Z,99487.18
2019-01-23T15:20:50.731Z,99486.71
2019-01-23T15:23:16.870Z,99488.23
2019-01-23T15:25:43.307Z,99491.01
2019-01-23T15:30:41.096Z,99494.70
2019-01-23T15:33:07.582Z,99503.47
2019-01-23T15:35:34.695Z,99506.48
2019-01-23T15:38:02.814Z,99503.50
2019-01-23T15:40:28.890Z,99510.20
2019-01-23T15:42:54.997Z,99507.53
2019-01-23T15:45:22.947Z,99516.23
2019-01-23T15:47:49.011Z,99516.44
2019-01-23T15:50:15.240Z,99519.52
2019-01-23T15:52:41.344Z,99529.37
2019-01-23T15:57:38.548Z,99535.36
2019-01-23T16:00:04.577Z,99536.73
2019-01-23T16:02:30.735Z,99537.52
2019-01-23T16:07:28.166Z,99549.88
2019-01-23T16:09:54.324Z,99553.90
2019-01-23T16:12:21.119Z,99555.89
2019-01-23T16:14:47.230Z,99557.47
2019-01-23T16:17:13.279Z,99561.91
2019-01-23T16:19:39.355Z,99567.33
2019-01-23T16:22:05.433Z,99568.79
2019-01-23T16:24:32.018Z,99571.71
2019-01-23T16:26:58.020Z,99572.77
2019-01-23T16:29:24.428Z,99580.16
2019-01-23T16:31:54.094Z,99577.91
2019-01-23T16:34:19.628Z,99583.14
2019-01-23T16:36:45.709Z,99590.53
2019-01-23T16:39:11.740Z,99597.13
2019-01-23T16:41:38.668Z,99597.23
2019-01-23T16:44:04.713Z,99607.11
2019-01-23T16:46:30.718Z,99602.16
2019-01-23T16:48:56.787Z,99598.66
2019-01-23T16:51:22.837Z,99607.44
2019-01-23T16:53:48.859Z,99610.97
2019-01-23T16:56:14.972Z,99611.51
2019-01-23T16:58:40.953Z,99613.54
2019-01-23T17:01:06.972Z,99616.66
2019-01-23T17:03:32.972Z,99620.25
2019-01-23T17:05:58.970Z,99623.06
2019-01-23T17:08:25.000Z,99630.04
2019-01-23T17:10:51.018Z,99628.78
2019-01-23T17:13:19.177Z,99630.41
2019-01-23T17:15:45.228Z,99632.77
2019-01-23T17:18:11.370Z,99640.78
2019-01-23T17:20:37.392Z,99639.91
2019-01-23T17:23:03.423Z,99643.11
2019-01-23T17:25:29.490Z,99648.91
2019-01-23T17:27:55.652Z,99655.14
2019-01-23T17:30:21.639Z,99655.73
2019-01-23T17:32:53.500Z,99657.53
2019-01-23T17:35:19.538Z,99661.11
2019-01-23T17:37:45.640Z,99662.34
2019-01-23T17:40:11.677Z,99672.58
2019-01-23T17:42:37.685Z,99676.09
2019-01-23T17:45:03.713Z,99678.45
2019-01-23T17:47:29.731Z,99677.12
2019-01-23T17:49:55.783Z,99676.64
2019-01-23T17:52:21.825Z,99688.73
2019-01-23T17:54:47.917Z,99693.81
2019-01-23T17:57:13.936Z,99699.97
2019-01-23T17:59:39.945Z,99703.30
2019-01-23T18:02:06.053Z,99705.92
2019-01-23T18:04:32.042Z,99707.95
2019-01-23T18:06:58.101Z,99715.22
2019-01-23T18:09:24.128Z,99721.98
2019-01-23T18:11:50.166Z,99723.67
2019-01-23T18:14:16.177Z,99720.86
2019-01-23T18:16:42.242Z,99721.31
2019-01-23T18:19:09.374Z,99725.33
2019-01-23T18:21:35.435Z,99730.62
2019-01-23T18:24:01.525Z,99727.17
2019-01-23T18:26:28.561Z,99729.98
2019-01-23T18:28:54.591Z,99735.77
2019-01-23T18:31:20.783Z,99730.20
2019-01-23T18:33:46.827Z,99729.69
2019-01-23T18:36:12.818Z,99737.91
2019-01-23T18:38:38.858Z,99746.86
2019-01-23T18:41:04.897Z,99749.87
2019-01-23T18:43:30.938Z,99756.56
2019-01-23T18:45:57.011Z,99759.72
2019-01-23T18:48:24.533Z,99762.42
2019-01-23T18:58:27.638Z,99765.00
2019-01-23T19:00:53.641Z,99761.52
2019-01-23T19:03:20.048Z,99762.70
2019-01-23T19:05:46.039Z,99762.00
2019-01-23T19:08:12.161Z,99765.78
2019-01-23T19:10:38.163Z,99769.61
2019-01-23T19:13:04.170Z,99768.36
2019-01-23T19:15:30.318Z,99776.30
2019-01-23T19:17:57.349Z,99776.45
2019-01-23T19:20:23.400Z,99781.64
2019-01-23T19:22:49.557Z,99776.06
2019-01-23T19:25:15.698Z,99769.47
2019-01-23T19:27:44.726Z,99776.58
2019-01-23T19:30:10.553Z,99781.86
2019-01-23T19:32:36.606Z,99782.69
2019-01-23T19:35:02.629Z,99786.29
2019-01-23T19:37:30.834Z,99784.66
2019-01-23T19:39:56.869Z,99788.48
2019-01-23T19:42:22.936Z,99790.30
2019-01-23T19:44:49.391Z,99795.57
2019-01-23T19:47:15.409Z,99795.58
2019-01-23T19:49:42.537Z,99799.89
2019-01-23T19:52:09.768Z,99799.89
2019-01-23T19:54:35.902Z,99795.43
2019-01-23T19:57:01.976Z,99794.61
2019-01-23T19:59:28.324Z,99800.71
2019-01-23T20:01:59.769Z,99809.95
2019-01-23T20:04:27.625Z,99803.70
2019-01-23T20:06:53.625Z,99806.66
2019-01-23T20:11:47.967Z,99814.94
2019-01-23T20:14:18.099Z,99811.83
2019-01-23T20:19:15.721Z,99814.83
2019-01-23T20:21:41.879Z,99814.20
2019-01-23T20:24:07.951Z,99816.84
2019-01-23T20:26:34.036Z,99820.80
2019-01-23T20:29:00.152Z,99819.76
2019-01-23T20:31:26.204Z,99826.36
2019-01-23T20:33:52.300Z,99824.41
2019-01-23T20:36:18.307Z,99824.88
2019-01-23T20:38:44.405Z,99830.69
2019-01-23T20:41:10.539Z,99831.66
2019-01-23T20:43:37.582Z,99836.47
2019-01-23T20:46:03.667Z,99838.27
2019-01-23T20:48:29.748Z,99839.27
2019-01-23T20:50:55.788Z,99851.66
2019-01-23T20:53:21.815Z,99844.54
2019-01-23T20:55:47.955Z,99847.52
2019-01-23T20:58:14.000Z,99847.50
2019-01-23T21:00:40.094Z,99846.39
2019-01-23T21:03:06.138Z,99843.72
2019-01-23T21:05:32.238Z,99844.22
2019-01-23T21:07:59.353Z,99848.34
2019-01-23T21:10:25.438Z,99851.64
2019-01-23T21:12:51.839Z,99854.44
2019-01-23T21:15:18.202Z,99856.25
2019-01-23T21:17:44.324Z,99855.59
2019-01-23T21:20:10.333Z,99857.07
2019-01-23T21:22:36.423Z,99858.23
2019-01-23T21:25:02.516Z,99865.50
2019-01-23T21:27:28.550Z,99861.84
2019-01-23T21:29:54.611Z,99879.52
2019-01-23T21:32:20.746Z,99874.91
2019-01-23T21:34:46.810Z,99882.97
2019-01-23T21:37:13.545Z,99877.22
2019-01-23T21:39:39.560Z,99883.62
2019-01-23T21:42:11.934Z,99878.85
2019-01-23T21:44:37.989Z,99889.58
2019-01-23T21:47:04.017Z,99892.20
2019-01-23T21:49:30.093Z,99892.55
2019-01-23T21:51:56.135Z,99888.92
2019-01-23T21:54:22.206Z,99893.53
2019-01-23T21:56:48.378Z,99900.61
2019-01-23T21:59:20.191Z,99901.77
2019-01-23T22:01:46.212Z,99904.75
2019-01-23T22:04:12.200Z,99906.23
2019-01-23T22:06:38.437Z,99905.91
2019-01-23T22:09:04.529Z,99914.46
2019-01-23T22:11:30.702Z,99911.67
2019-01-23T22:13:56.717Z,99916.30
2019-01-23T22:16:22.855Z,99921.88
2019-01-23T22:18:48.837Z,99918.74
2019-01-23T22:21:14.863Z,99920.38
2019-01-23T22:23:40.842Z,99930.63
2019-01-23T22:26:07.148Z,99929.31
2019-01-23T22:28:33.157Z,99932.09
2019-01-23T22:30:59.174Z,99933.23
2019-01-23T22:33:25.161Z,99937.53
2019-01-23T22:35:51.182Z,99936.87
2019-01-23T22:38:17.201Z,99938.53
2019-01-23T22:40:43.297Z,99942.81
2019-01-23T22:43:14.933Z,99945.42
2019-01-23T22:45:37.091Z,99951.37
2019-01-23T22:48:03.110Z,99957.47
2019-01-23T22:50:29.135Z,99949.55
2019-01-23T22:52:55.153Z,99956.99
2019-01-23T22:55:21.267Z,99961.59
2019-01-23T22:57:47.333Z,99964.07
2019-01-23T23:00:13.394Z,99961.77
2019-01-23T23:02:39.417Z,99958.95
2019-01-23T23:05:05.401Z,99961.60
2019-01-23T23:07:33.695Z,99971.16
2019-01-23T23:12:31.957Z,99979.08
2019-01-23T23:17:33.131Z,99988.64
2019-01-23T23:20:02.479Z,99987.16
2019-01-23T23:22:30.455Z,99996.23
2019-01-23T23:24:56.539Z,99996.74
2019-01-23T23:27:26.653Z,99999.88
2019-01-23T23:29:55.400Z,100002.17
2019-01-23T23:34:53.713Z,100007.95
2019-01-23T23:37:20.210Z,100007.92
2019-01-23T23:44:50.066Z,100018.16
2019-01-23T23:47:19.052Z,100016.16
2019-01-23T23:49:44.834Z,100021.60
2019-01-23T23:52:10.843Z,100030.50
2019-01-23T23:54:38.878Z,100027.53
2019-01-23T23:57:04.948Z,100036.11
2019-01-23T23:59:30.961Z,100037.09
